Time;durP1;ratioP1;P1;durP2;ratioP2;P2;SDS_P1;SDS_P2;PMS_P1;PMS_P2;Temp;Humidity;BMP_temperature;BMP_pressure;BME280_temperature;BME280_humidity;BME280_pressure;Samples;Min_cycle;Max_cycle;Signal;HPM_P1;HPM_P2
2024/01/11 00:00:29;;;;;;;1.50;1.40;;;-6.90;47.80;;;;;;5100126;28;20493;-82
2024/01/11 00:02:55;;;;;;;0.50;0.50;;;-6.80;46.80;;;;;;5087664;28;20528;-82
2024/01/11 00:05:21;;;;;;;0.30;0.30;;;-6.80;41.30;;;;;;5070299;28;20067;-82
2024/01/11 00:07:47;;;;;;;0.37;0.37;;;-6.80;99.40;;;;;;5101103;28;20096;-82
2024/01/11 00:10:13;;;;;;;0.10;0.10;;;-6.80;35.10;;;;;;5099925;28;20043;-82
2024/01/11 00:12:38;;;;;;;0.30;0.30;;;-6.70;97.00;;;;;;5091641;28;20401;-82
2024/01/11 00:15:04;;;;;;;0.13;0.13;;;-6.60;99.90;;;;;;5077086;28;20079;-83
2024/01/11 00:17:30;;;;;;;1.23;1.13;;;-6.40;99.90;;;;;;5095445;28;20075;-82
2024/01/11 00:19:55;;;;;;;0.50;0.50;;;-6.20;1.00;;;;;;5098871;28;20131;-81
2024/01/11 00:22:21;;;;;;;8.20;2.33;;;-6.40;99.90;;;;;;5094041;28;20055;-81
2024/01/11 00:24:47;;;;;;;0.50;0.50;;;-6.40;99.90;;;;;;5092153;28;20094;-81
2024/01/11 00:27:12;;;;;;;0.40;0.40;;;-6.40;99.90;;;;;;5079667;28;20394;-82
2024/01/11 00:29:38;;;;;;;1.70;1.60;;;-6.40;99.90;;;;;;5099642;28;20040;-82
2024/01/11 00:32:03;;;;;;;0.20;0.20;;;-6.40;99.90;;;;;;5087696;28;20037;-81
2024/01/11 00:34:29;;;;;;;0.40;0.40;;;-6.50;99.90;;;;;;5089877;28;20047;-81
2024/01/11 00:36:55;;;;;;;0.20;0.20;;;-6.60;8.30;;;;;;5093243;28;20052;-81
2024/01/11 00:39:20;;;;;;;0.50;0.50;;;-6.60;1.00;;;;;;5101918;28;20035;-81
2024/01/11 00:41:46;;;;;;;8.37;2.17;;;-6.60;99.90;;;;;;5104337;28;20051;-82
2024/01/11 00:44:11;;;;;;;0.20;0.20;;;-6.70;78.20;;;;;;5104706;28;20050;-82
2024/01/11 00:46:38;;;;;;;0.20;0.20;;;-6.70;2.90;;;;;;5072350;28;20470;-81
2024/01/11 00:49:04;;;;;;;0.10;0.10;;;-6.80;10.80;;;;;;5108004;28;20043;-82
2024/01/11 00:51:29;;;;;;;0.10;0.10;;;-6.80;1.00;;;;;;5099477;28;20087;-81
2024/01/11 00:53:55;;;;;;;0.27;0.27;;;-6.80;1.00;;;;;;5096867;28;20039;-81
2024/01/11 00:56:21;;;;;;;2.10;2.00;;;-6.80;1.00;;;;;;5075319;28;20536;-82
2024/01/11 00:58:47;;;;;;;0.20;0.20;;;-6.80;99.90;;;;;;5097750;28;20054;-82
2024/01/11 01:01:13;;;;;;;0.73;0.73;;;-6.80;99.90;;;;;;5099390;28;20273;-81
2024/01/11 01:03:39;;;;;;;2.63;0.77;;;-6.80;99.90;;;;;;5067553;28;20064;-81
2024/01/11 01:06:05;;;;;;;0.47;0.47;;;-6.80;94.00;;;;;;5070989;28;20132;-81
2024/01/11 01:08:31;;;;;;;2.40;1.90;;;-6.80;1.00;;;;;;5106826;28;20036;-82
2024/01/11 01:10:56;;;;;;;1.90;1.80;;;-6.80;1.00;;;;;;5100838;28;20043;-82
2024/01/11 01:13:22;;;;;;;0.00;0.00;;;-6.70;99.90;;;;;;5099679;28;20147;-82
2024/01/11 01:15:48;;;;;;;3.70;3.50;;;-6.60;29.10;;;;;;5096412;28;20040;-82
2024/01/11 01:18:14;;;;;;;0.20;0.20;;;-6.70;1.00;;;;;;5102638;28;20461;-82
2024/01/11 01:20:39;;;;;;;0.67;0.67;;;-6.70;1.00;;;;;;5092390;28;20044;-82
2024/01/11 01:23:05;;;;;;;0.10;0.10;;;-6.70;1.00;;;;;;5096444;28;20048;-82
2024/01/11 01:25:32;;;;;;;1.90;1.80;;;-6.60;94.70;;;;;;5092255;28;20093;-82
2024/01/11 01:27:59;;;;;;;0.83;0.73;;;-6.70;1.00;;;;;;5099096;28;20136;-81
2024/01/11 01:30:24;;;;;;;0.00;0.00;;;-6.70;1.00;;;;;;5108811;28;20051;-82
2024/01/11 01:32:50;;;;;;;0.10;0.10;;;-6.70;99.90;;;;;;5092877;28;20044;-82
2024/01/11 01:35:16;;;;;;;2.73;1.63;;;-6.70;99.90;;;;;;5089093;28;20048;-82
2024/01/11 01:37:42;;;;;;;0.30;0.30;;;-6.80;1.00;;;;;;5100247;28;20097;-82
2024/01/11 01:40:08;;;;;;;2.53;2.27;;;-6.60;1.00;;;;;;5102468;28;20058;-82
2024/01/11 01:42:34;;;;;;;7.67;1.60;;;-6.70;1.00;;;;;;5108348;28;20044;-82
2024/01/11 01:45:00;;;;;;;3.47;3.17;;;-6.70;1.00;;;;;;5109248;28;20044;-82
2024/01/11 01:47:27;;;;;;;0.10;0.10;;;-6.70;1.00;;;;;;5101428;28;20052;-82
2024/01/11 01:49:54;;;;;;;1.10;1.07;;;-6.80;1.00;;;;;;5098853;28;20064;-82
2024/01/11 01:52:20;;;;;;;0.63;0.63;;;-6.80;99.90;;;;;;5104757;28;20091;-82
2024/01/11 01:54:48;;;;;;;1.37;1.10;;;-6.80;99.90;;;;;;5110599;28;20048;-82
2024/01/11 01:57:16;;;;;;;1.50;1.40;;;-6.90;99.90;;;;;;5077285;28;20596;-82
2024/01/11 01:59:43;;;;;;;1.23;1.13;;;-6.90;99.90;;;;;;5096068;28;20122;-82
2024/01/11 02:02:10;;;;;;;0.43;0.43;;;-7.00;99.90;;;;;;5105664;28;20048;-82
2024/01/11 02:04:36;;;;;;;0.47;0.47;;;-7.10;99.90;;;;;;5099134;28;20201;-82
2024/01/11 02:07:02;;;;;;;0.30;0.30;;;-7.20;34.30;;;;;;5107932;28;20075;-82
2024/01/11 02:09:28;;;;;;;0.10;0.10;;;-7.30;1.00;;;;;;5101173;28;20048;-82
2024/01/11 02:11:54;;;;;;;0.60;0.60;;;-7.40;1.00;;;;;;5096101;28;20062;-82
2024/01/11 02:14:20;;;;;;;4.70;0.87;;;-7.50;99.90;;;;;;5097286;28;20044;-82
2024/01/11 02:16:46;;;;;;;0.40;0.40;;;-7.60;99.90;;;;;;5099536;28;20126;-82
2024/01/11 02:19:13;;;;;;;0.50;0.50;;;-7.60;29.30;;;;;;5073009;28;20063;-82
2024/01/11 02:21:45;;;;;;;0.57;0.57;;;-7.50;99.90;;;;;;5073055;28;20616;-82
2024/01/11 02:24:11;;;;;;;1.20;1.17;;;-7.50;99.90;;;;;;5079475;28;20556;-83
2024/01/11 02:26:56;;;;;;;0.47;0.47;;;-7.60;12.80;;;;;;5091902;28;20040;-83
2024/01/11 02:29:22;;;;;;;1.95;1.85;;;-7.60;1.00;;;;;;5093884;28;20051;-82
2024/01/11 02:31:48;;;;;;;0.00;0.00;;;-7.60;1.00;;;;;;5109473;28;20768;-82
2024/01/11 02:34:13;;;;;;;0.63;0.63;;;-7.70;99.90;;;;;;5097322;28;20036;-81
2024/01/11 02:36:39;;;;;;;1.03;0.97;;;-7.90;99.90;;;;;;5105735;28;20478;-81
2024/01/11 02:39:06;;;;;;;0.73;0.73;;;-7.80;99.90;;;;;;5102306;28;20138;-82
2024/01/11 02:41:32;;;;;;;2.33;2.23;;;-8.10;99.90;;;;;;5111750;28;20044;-82
2024/01/11 02:43:58;;;;;;;1.43;1.37;;;-8.00;99.90;;;;;;5085165;28;20048;-83
2024/01/11 02:46:24;;;;;;;0.97;0.97;;;-8.00;99.90;;;;;;5102642;28;20093;-82
2024/01/11 02:48:50;;;;;;;0.37;0.37;;;-8.10;99.90;;;;;;5102136;28;20063;-82
2024/01/11 02:51:15;;;;;;;2.43;2.33;;;-8.10;99.90;;;;;;5101818;28;20071;-82
2024/01/11 02:53:41;;;;;;;0.63;0.63;;;-8.00;99.90;;;;;;5103925;28;20040;-83
2024/01/11 02:56:06;;;;;;;0.93;0.93;;;-8.10;52.50;;;;;;5085870;28;20059;-82
2024/01/11 02:58:32;;;;;;;0.40;0.40;;;-8.30;1.00;;;;;;5100216;28;20059;-82
2024/01/11 03:00:58;;;;;;;0.10;0.10;;;-8.40;99.90;;;;;;5106278;28;20051;-82
2024/01/11 03:03:23;;;;;;;0.10;0.10;;;-8.50;99.90;;;;;;5100696;28;20096;-82
2024/01/11 03:05:49;;;;;;;0.53;0.40;;;-8.60;99.90;;;;;;5079545;28;20501;-82
2024/01/11 03:08:15;;;;;;;0.03;0.03;;;-8.60;99.90;;;;;;5076951;28;20055;-82
2024/01/11 03:10:40;;;;;;;0.37;0.37;;;-8.50;1.00;;;;;;5099575;28;20549;-82
2024/01/11 03:13:07;;;;;;;0.43;0.43;;;-8.50;25.30;;;;;;5099855;28;20126;-82
2024/01/11 03:15:33;;;;;;;1.43;1.33;;;-8.50;1.00;;;;;;5107732;28;20051;-82
2024/01/11 03:17:59;;;;;;;0.30;0.30;;;-8.60;1.00;;;;;;5099352;28;20059;-82
2024/01/11 03:20:24;;;;;;;0.23;0.23;;;-8.60;1.00;;;;;;5072230;28;20048;-82
2024/01/11 03:22:53;;;;;;;0.30;0.30;;;-8.50;1.00;;;;;;5099896;28;20040;-82
2024/01/11 03:25:19;;;;;;;0.93;0.93;;;-8.70;1.00;;;;;;5071737;28;20048;-82
2024/01/11 03:27:45;;;;;;;0.20;0.20;;;-8.70;1.00;;;;;;5072896;28;20551;-82
2024/01/11 03:30:11;;;;;;;0.10;0.10;;;-8.60;99.90;;;;;;5111294;28;20512;-82
2024/01/11 03:32:38;;;;;;;0.10;0.10;;;-8.70;99.90;;;;;;5104871;28;20050;-81
2024/01/11 03:35:06;;;;;;;0.20;0.20;;;-8.70;99.90;;;;;;5089287;28;20048;-82
2024/01/11 03:37:32;;;;;;;0.10;0.10;;;-8.80;99.90;;;;;;5085225;28;20054;-82
2024/01/11 03:39:58;;;;;;;0.27;0.27;;;-8.80;99.90;;;;;;5103894;28;20047;-82
2024/01/11 03:42:24;;;;;;;0.20;0.20;;;-8.80;99.90;;;;;;5099770;28;20044;-82
2024/01/11 03:44:50;;;;;;;2.03;1.70;;;-8.70;99.90;;;;;;5098635;28;20035;-81
2024/01/11 03:47:15;;;;;;;0.20;0.20;;;-8.70;1.00;;;;;;5101864;28;20073;-82
2024/01/11 03:49:41;;;;;;;1.37;1.30;;;-8.60;1.00;;;;;;5075707;28;20051;-82
2024/01/11 03:52:06;;;;;;;0.20;0.20;;;-8.60;77.20;;;;;;5075486;28;20157;-82
2024/01/11 03:54:32;;;;;;;0.10;0.10;;;-8.70;1.00;;;;;;5105876;28;20043;-82
2024/01/11 03:56:58;;;;;;;0.50;0.50;;;-8.80;1.00;;;;;;5103187;28;20039;-82
2024/01/11 03:59:23;;;;;;;1.97;1.80;;;-8.60;99.90;;;;;;5100605;28;20055;-82
2024/01/11 04:01:49;;;;;;;0.30;0.30;;;-8.70;99.90;;;;;;5072843;28;20048;-82
2024/01/11 04:04:15;;;;;;;0.20;0.20;;;-8.60;1.00;;;;;;5098546;28;20488;-82
2024/01/11 04:06:40;;;;;;;0.20;0.20;;;-8.50;1.00;;;;;;5055982;28;20506;-82
2024/01/11 04:09:06;;;;;;;1.33;1.33;;;-8.60;29.60;;;;;;5099727;28;20533;-82
2024/01/11 04:11:32;;;;;;;0.10;0.10;;;-8.50;47.10;;;;;;5073460;28;20590;-82
2024/01/11 04:13:57;;;;;;;2.17;2.07;;;-8.50;99.90;;;;;;5071453;28;20474;-82
2024/01/11 04:16:23;;;;;;;0.10;0.10;;;-8.50;99.90;;;;;;5084991;28;20056;-82
2024/01/11 04:18:48;;;;;;;1.20;1.10;;;-8.60;93.90;;;;;;5084733;28;20041;-82
2024/01/11 04:21:24;;;;;;;0.40;0.40;;;-8.60;20.40;;;;;;5086110;28;20062;-82
2024/01/11 04:23:50;;;;;;;0.20;0.20;;;-8.60;99.90;;;;;;5092730;28;20047;-82
2024/01/11 04:26:17;;;;;;;0.10;0.10;;;-8.60;55.00;;;;;;5109111;28;20407;-81
2024/01/11 04:28:47;;;;;;;0.87;0.87;;;-8.60;1.00;;;;;;5098521;28;20051;-82
2024/01/11 04:31:14;;;;;;;0.10;0.10;;;-8.70;99.90;;;;;;5099805;28;20444;-82
2024/01/11 04:33:41;;;;;;;0.10;0.10;;;-8.80;99.90;;;;;;5094468;28;20378;-82
2024/01/11 04:36:08;;;;;;;0.30;0.30;;;-8.80;99.90;;;;;;5078544;28;20132;-82
2024/01/11 04:38:33;;;;;;;0.10;0.10;;;-8.70;1.00;;;;;;5098896;28;20130;-82
2024/01/11 04:40:59;;;;;;;0.10;0.10;;;-8.60;99.90;;;;;;5090850;28;20470;-82
2024/01/11 04:43:24;;;;;;;1.03;1.03;;;-8.60;99.90;;;;;;5100863;28;20052;-82
2024/01/11 04:45:50;;;;;;;0.50;0.50;;;-8.40;1.00;;;;;;5093686;28;20079;-82
2024/01/11 04:48:15;;;;;;;1.00;0.93;;;-8.10;99.90;;;;;;5102217;28;20840;-82
2024/01/11 04:50:41;;;;;;;0.37;0.37;;;-7.80;99.90;;;;;;5093714;28;20099;-82
2024/01/11 04:53:07;;;;;;;0.30;0.30;;;-7.40;1.00;;;;;;5098992;28;20043;-82
2024/01/11 04:55:32;;;;;;;0.50;0.50;;;-7.20;1.00;;;;;;5098308;28;20048;-82
2024/01/11 04:57:58;;;;;;;0.33;0.33;;;-7.00;71.20;;;;;;5090192;28;20113;-82
2024/01/11 05:00:23;;;;;;;2.37;1.23;;;-6.70;94.40;;;;;;5102115;28;20482;-82
2024/01/11 05:02:49;;;;;;;1.10;1.10;;;-6.60;99.90;;;;;;5094279;28;20513;-82
2024/01/11 05:05:15;;;;;;;0.30;0.30;;;-6.30;99.90;;;;;;5073266;28;20801;-82
2024/01/11 05:07:41;;;;;;;0.20;0.20;;;-6.30;99.90;;;;;;5096730;28;20064;-82
2024/01/11 05:10:07;;;;;;;0.77;0.77;;;-6.10;99.90;;;;;;5098446;28;20102;-82
2024/01/11 05:12:33;;;;;;;0.10;0.10;;;-5.90;99.90;;;;;;5089675;28;20048;-81
2024/01/11 05:14:58;;;;;;;9.67;2.80;;;-5.80;99.90;;;;;;5105360;28;20477;-82
2024/01/11 05:17:26;;;;;;;0.20;0.20;;;-5.60;99.90;;;;;;5101499;28;20056;-82
2024/01/11 05:19:51;;;;;;;0.70;0.70;;;-5.50;99.90;;;;;;5101291;28;20047;-81
2024/01/11 05:22:17;;;;;;;1.07;0.37;;;-5.30;1.00;;;;;;5093109;28;20044;-81
2024/01/11 05:24:43;;;;;;;0.97;0.97;;;-5.20;1.00;;;;;;5095617;28;20043;-82
2024/01/11 05:27:09;;;;;;;6.80;2.70;;;-5.10;1.00;;;;;;5096742;28;20048;-81
2024/01/11 05:29:34;;;;;;;2.43;2.30;;;-5.00;1.00;;;;;;5092916;28;20106;-82
2024/01/11 05:32:00;;;;;;;0.30;0.30;;;-4.90;18.40;;;;;;5109614;28;20050;-81
2024/01/11 05:34:25;;;;;;;2.80;1.97;;;-4.90;63.90;;;;;;5099947;28;20046;-82
2024/01/11 05:36:51;;;;;;;1.77;1.50;;;-4.80;92.60;;;;;;5098089;28;20040;-82
2024/01/11 05:39:16;;;;;;;0.67;0.50;;;-4.70;99.90;;;;;;5103469;28;20093;-82
2024/01/11 05:41:45;;;;;;;3.47;2.67;;;-4.70;99.90;;;;;;5098344;28;20711;-82
2024/01/11 05:44:11;;;;;;;0.93;0.80;;;-4.60;99.90;;;;;;5101483;28;20051;-81
2024/01/11 05:46:36;;;;;;;0.20;0.20;;;-4.60;99.90;;;;;;5083286;28;20044;-82
2024/01/11 05:49:03;;;;;;;2.47;1.13;;;-4.60;99.90;;;;;;5099560;28;20040;-82
2024/01/11 05:51:29;;;;;;;0.10;0.10;;;-4.50;99.90;;;;;;5085979;28;20095;-82
2024/01/11 05:53:55;;;;;;;0.30;0.30;;;-4.40;99.90;;;;;;5090362;28;20099;-83
2024/01/11 05:56:21;;;;;;;1.83;1.70;;;-4.30;99.90;;;;;;5087453;28;20153;-82
2024/01/11 05:58:46;;;;;;;2.47;1.97;;;-4.20;99.90;;;;;;5097639;28;20036;-82
2024/01/11 06:01:12;;;;;;;3.93;2.47;;;-4.20;99.90;;;;;;5097336;28;20039;-82
2024/01/11 06:03:39;;;;;;;0.50;0.50;;;-4.10;99.90;;;;;;5093598;28;20136;-81
2024/01/11 06:06:05;;;;;;;5.80;1.57;;;-4.00;99.90;;;;;;5103570;28;20051;-82
2024/01/11 06:08:31;;;;;;;1.63;1.53;;;-3.90;99.90;;;;;;5097668;28;20040;-82
2024/01/11 06:10:57;;;;;;;3.50;2.47;;;-3.90;1.00;;;;;;5096454;28;20043;-82
2024/01/11 06:13:23;;;;;;;3.90;3.13;;;-4.90;1.00;;;;;;5096203;28;20048;-82
2024/01/11 06:15:50;;;;;;;1.08;1.02;;;-3.80;1.00;;;;;;5104688;28;20123;-82
2024/01/11 06:18:15;;;;;;;0.10;0.10;;;-3.80;1.00;;;;;;5088494;28;20791;-82
2024/01/11 06:20:41;;;;;;;0.43;0.43;;;-3.80;1.00;;;;;;5091820;28;20049;-82
2024/01/11 06:23:07;;;;;;;3.40;0.87;;;-3.70;1.00;;;;;;5095134;28;20051;-82
2024/01/11 06:25:32;;;;;;;1.07;1.03;;;-3.70;1.00;;;;;;5107513;28;20040;-82
2024/01/11 06:27:58;;;;;;;1.33;1.23;;;-3.60;1.00;;;;;;5100573;28;20040;-82
2024/01/11 06:30:23;;;;;;;1.77;1.67;;;-3.50;1.00;;;;;;5087113;28;20073;-83
2024/01/11 06:32:49;;;;;;;3.73;2.07;;;-3.50;1.00;;;;;;5059134;28;20059;-82
2024/01/11 06:35:15;;;;;;;0.90;0.88;;;-3.60;1.00;;;;;;5100453;28;20073;-82
2024/01/11 06:37:40;;;;;;;5.03;1.25;;;-3.50;1.00;;;;;;5073758;28;20036;-82
2024/01/11 06:40:08;;;;;;;0.97;0.97;;;-3.50;1.00;;;;;;5083902;28;20041;-82
2024/01/11 06:42:34;;;;;;;0.80;0.80;;;-3.50;1.00;;;;;;5090641;28;20048;-82
2024/01/11 06:44:59;;;;;;;8.03;3.57;;;-3.50;1.00;;;;;;5099932;28;20032;-82
2024/01/11 06:47:25;;;;;;;4.78;1.75;;;-3.40;1.00;;;;;;5112583;28;20455;-82
2024/01/11 06:49:51;;;;;;;0.73;0.73;;;-3.40;1.00;;;;;;5095184;28;20071;-83
2024/01/11 06:52:17;;;;;;;1.13;1.10;;;-3.40;1.00;;;;;;5095679;28;20115;-83
2024/01/11 06:54:42;;;;;;;0.30;0.30;;;-3.40;1.00;;;;;;5091974;28;20101;-83
2024/01/11 06:57:08;;;;;;;0.83;0.63;;;-3.30;1.00;;;;;;5101058;28;20505;-84
2024/01/11 06:59:34;;;;;;;0.30;0.30;;;-3.30;8.90;;;;;;5098917;28;20082;-83
2024/01/11 07:01:59;;;;;;;0.20;0.20;;;-3.20;14.80;;;;;;5079127;28;20044;-83
2024/01/11 07:04:25;;;;;;;6.47;1.73;;;-3.20;20.70;;;;;;5100792;28;20074;-83
2024/01/11 07:06:50;;;;;;;0.40;0.40;;;-3.20;27.00;;;;;;5098698;28;20110;-83
2024/01/11 07:09:16;;;;;;;3.20;2.07;;;-3.10;31.30;;;;;;5069582;28;20044;-83
2024/01/11 07:11:44;;;;;;;6.55;2.70;;;-3.10;40.60;;;;;;5090875;28;20058;-83
2024/01/11 07:14:09;;;;;;;1.20;1.10;;;-3.10;50.90;;;;;;5060648;28;20052;-83
2024/01/11 07:16:35;;;;;;;1.70;1.60;;;-3.10;59.70;;;;;;5098214;28;20130;-83
2024/01/11 07:19:01;;;;;;;1.70;1.60;;;-3.10;75.60;;;;;;5100015;28;20365;-83
2024/01/11 07:21:31;;;;;;;2.92;2.72;;;-3.10;88.40;;;;;;5100938;28;20051;-83
2024/01/11 07:23:59;;;;;;;4.13;3.80;;;-3.00;93.20;;;;;;5063581;28;20444;-83
2024/01/11 07:26:26;;;;;;;3.83;1.97;;;-3.00;97.10;;;;;;5099412;28;20040;-83
2024/01/11 07:28:54;;;;;;;2.67;2.47;;;-3.00;99.90;;;;;;5102007;28;20054;-83
2024/01/11 07:31:20;;;;;;;4.57;2.73;;;-2.90;99.90;;;;;;5101804;28;20428;-83
2024/01/11 07:33:46;;;;;;;0.65;0.65;;;-2.90;99.90;;;;;;5087636;28;20361;-83
2024/01/11 07:36:13;;;;;;;1.67;1.47;;;-2.90;99.90;;;;;;5102284;28;20035;-83
2024/01/11 07:38:40;;;;;;;1.02;1.00;;;-2.80;99.90;;;;;;5109518;28;20055;-83
2024/01/11 07:41:06;;;;;;;0.73;0.73;;;-2.80;99.90;;;;;;5093300;28;20044;-83
2024/01/11 07:43:35;;;;;;;2.97;2.20;;;-2.80;99.90;;;;;;5101168;28;20426;-83
2024/01/11 07:46:01;;;;;;;1.63;1.53;;;-2.70;99.90;;;;;;5076727;28;20048;-83
2024/01/11 07:48:27;;;;;;;0.40;0.40;;;-2.70;99.90;;;;;;5094358;28;20050;-83
2024/01/11 07:50:53;;;;;;;1.70;1.57;;;-2.60;99.90;;;;;;5103425;28;20413;-83
2024/01/11 07:53:18;;;;;;;4.77;2.00;;;-2.60;99.90;;;;;;5096858;28;20508;-83
2024/01/11 07:55:47;;;;;;;1.58;1.48;;;-2.60;99.90;;;;;;5097117;28;20714;-83
2024/01/11 07:58:13;;;;;;;2.28;2.13;;;-2.60;99.90;;;;;;5103587;28;20113;-83
2024/01/11 08:00:39;;;;;;;1.67;1.57;;;-2.50;99.90;;;;;;5104049;28;20047;-83
2024/01/11 08:03:04;;;;;;;5.17;2.63;;;-2.50;99.90;;;;;;5068264;28;20068;-83
2024/01/11 08:05:30;;;;;;;1.75;1.65;;;-2.40;99.90;;;;;;5085061;28;20055;-83
2024/01/11 08:07:56;;;;;;;0.00;0.00;;;-2.40;99.90;;;;;;5111424;28;20123;-83
2024/01/11 08:10:21;;;;;;;1.30;1.20;;;-2.30;99.90;;;;;;5072688;28;20486;-83
2024/01/11 08:12:47;;;;;;;0.88;0.88;;;-2.30;99.90;;;;;;5070554;28;20040;-83
2024/01/11 08:15:12;;;;;;;1.50;1.40;;;-2.30;99.90;;;;;;5092276;28;20105;-84
2024/01/11 08:17:39;;;;;;;7.63;2.67;;;-2.20;99.90;;;;;;5104520;28;20051;-83
2024/01/11 08:20:08;;;;;;;2.00;1.90;;;-2.10;99.90;;;;;;5078578;28;20377;-83
2024/01/11 08:22:35;;;;;;;1.80;1.70;;;-2.10;99.90;;;;;;5110413;28;20039;-83
2024/01/11 08:25:04;;;;;;;0.95;0.95;;;-2.00;99.90;;;;;;5103204;28;20493;-83
2024/01/11 08:27:31;;;;;;;2.15;1.67;;;-1.70;99.90;;;;;;5076206;28;20048;-84
2024/01/11 08:29:57;;;;;;;1.98;1.58;;;-1.90;1.00;;;;;;5112082;28;20115;-83
2024/01/11 08:32:22;;;;;;;2.13;1.37;;;-1.90;1.00;;;;;;5104468;28;20048;-83
2024/01/11 08:34:48;;;;;;;0.90;0.88;;;-1.80;1.00;;;;;;5102420;28;20044;-83
2024/01/11 08:37:14;;;;;;;1.20;1.10;;;-1.80;1.00;;;;;;5079684;28;20486;-83
2024/01/11 08:39:40;;;;;;;1.53;1.43;;;-1.70;1.00;;;;;;5101410;28;20107;-83
2024/01/11 08:42:05;;;;;;;2.53;1.60;;;-1.70;1.00;;;;;;5100958;28;20342;-83
2024/01/11 08:44:32;;;;;;;1.08;0.95;;;-1.60;1.00;;;;;;5084140;28;20052;-83
2024/01/11 08:46:58;;;;;;;1.57;1.47;;;-1.60;1.00;;;;;;5069877;28;20063;-83
2024/01/11 08:49:25;;;;;;;0.65;0.65;;;-1.50;1.00;;;;;;5097597;28;20277;-84
2024/01/11 08:51:50;;;;;;;2.88;2.63;;;-1.50;1.00;;;;;;5105293;28;20489;-83
2024/01/11 08:54:16;;;;;;;3.10;1.80;;;-1.40;13.00;;;;;;5101789;28;20131;-83
2024/01/11 08:56:45;;;;;;;6.78;2.92;;;-1.30;17.20;;;;;;5090511;28;20550;-83
2024/01/11 08:59:10;;;;;;;0.90;0.90;;;-1.30;29.70;;;;;;5098699;28;20031;-83
2024/01/11 09:01:37;;;;;;;4.18;1.40;;;-1.20;31.30;;;;;;5094248;28;20055;-83
2024/01/11 09:04:04;;;;;;;0.57;0.57;;;-1.10;25.40;;;;;;5096414;28;20506;-83
2024/01/11 09:06:30;;;;;;;0.57;0.57;;;-1.00;12.10;;;;;;5097474;28;20044;-83
2024/01/11 09:08:55;;;;;;;6.25;2.58;;;-1.00;21.90;;;;;;5095542;28;20031;-83
2024/01/11 09:11:21;;;;;;;1.08;1.00;;;-0.80;39.60;;;;;;5076980;28;20069;-83
2024/01/11 09:13:46;;;;;;;1.23;0.90;;;-0.90;41.80;;;;;;5079411;28;20052;-83
2024/01/11 09:16:16;;;;;;;0.82;0.82;;;-0.90;15.30;;;;;;5097145;28;20042;-83
2024/01/11 09:18:45;;;;;;;2.43;2.23;;;-0.80;40.00;;;;;;5088464;28;20148;-83
2024/01/11 09:21:12;;;;;;;0.30;0.30;;;-0.70;37.40;;;;;;5096928;28;20354;-83
2024/01/11 09:23:37;;;;;;;4.50;2.42;;;-0.70;13.50;;;;;;5090847;28;20355;-83
2024/01/11 09:26:03;;;;;;;3.35;1.55;;;-0.60;1.00;;;;;;5102658;28;20039;-83
2024/01/11 09:28:28;;;;;;;0.52;0.50;;;-0.50;1.00;;;;;;5097585;28;20051;-83
2024/01/11 09:30:59;;;;;;;2.17;1.10;;;-0.50;1.00;;;;;;5094096;28;20047;-83
2024/01/11 09:33:25;;;;;;;0.17;0.17;;;-0.40;1.00;;;;;;5050266;28;20049;-83
2024/01/11 09:35:51;;;;;;;0.70;0.70;;;-0.30;1.00;;;;;;5055735;28;20047;-83
2024/01/11 09:38:17;;;;;;;1.80;1.70;;;-0.30;1.00;;;;;;5101709;28;20048;-83
2024/01/11 09:40:42;;;;;;;1.02;0.93;;;-0.20;1.00;;;;;;5069882;28;20099;-83
2024/01/11 09:43:09;;;;;;;2.38;2.17;;;-0.10;1.00;;;;;;5096670;28;20295;-83
2024/01/11 09:45:37;;;;;;;0.98;0.98;;;-0.10;1.00;;;;;;5096551;28;20056;-83
2024/01/11 09:48:05;;;;;;;1.48;1.38;;;0.00;1.00;;;;;;5089449;28;20044;-83
2024/01/11 09:50:32;;;;;;;1.67;1.58;;;0.10;1.00;;;;;;5098681;28;20645;-82
2024/01/11 09:53:00;;;;;;;2.75;1.40;;;0.20;99.90;;;;;;5106324;28;20043;-83
2024/01/11 09:55:26;;;;;;;2.08;1.88;;;0.20;99.90;;;;;;5092202;28;20059;-83
2024/01/11 09:57:56;;;;;;;2.22;1.77;;;0.30;99.90;;;;;;5100751;28;20036;-82
2024/01/11 10:00:25;;;;;;;1.55;1.45;;;0.30;99.90;;;;;;5100188;28;20077;-83
2024/01/11 10:02:52;;;;;;;1.27;1.20;;;0.30;99.90;;;;;;5098503;28;20044;-83
2024/01/11 10:05:18;;;;;;;0.47;0.47;;;0.40;99.90;;;;;;5099297;28;20043;-82
2024/01/11 10:07:45;;;;;;;4.85;2.47;;;0.50;99.90;;;;;;5105982;28;20062;-82
2024/01/11 10:10:15;;;;;;;2.25;2.05;;;0.50;99.90;;;;;;5102329;28;20052;-82
2024/01/11 10:12:40;;;;;;;1.58;1.15;;;0.60;99.90;;;;;;5073148;28;20148;-83
2024/01/11 10:15:09;;;;;;;0.80;0.80;;;0.60;99.90;;;;;;5099148;28;20105;-83
2024/01/11 10:17:45;;;;;;;4.25;2.83;;;0.60;99.90;;;;;;5064799;28;20397;-83
2024/01/11 10:20:15;;;;;;;6.32;2.53;;;0.60;99.90;;;;;;5073480;28;20238;-83
2024/01/11 10:22:41;;;;;;;4.63;2.33;;;0.60;99.90;;;;;;5094598;28;20054;-82
2024/01/11 10:25:12;;;;;;;4.82;1.65;;;0.60;95.80;;;;;;5112298;28;20046;-82
2024/01/11 10:27:41;;;;;;;5.22;3.03;;;0.70;1.00;;;;;;5074621;28;20119;-82
2024/01/11 10:30:07;;;;;;;0.70;0.70;;;0.70;1.00;;;;;;5097972;28;20065;-82
2024/01/11 10:32:34;;;;;;;0.13;0.13;;;0.80;99.90;;;;;;5103597;28;20397;-82
2024/01/11 10:35:04;;;;;;;0.32;0.32;;;0.80;99.90;;;;;;5110772;28;20052;-82
2024/01/11 10:37:32;;;;;;;3.50;2.47;;;0.80;99.90;;;;;;5059628;28;20071;-82
2024/01/11 10:39:59;;;;;;;1.80;1.70;;;0.80;99.90;;;;;;5091533;28;20036;-82
2024/01/11 10:42:31;;;;;;;1.95;1.75;;;0.80;99.90;;;;;;5099499;28;20162;-82
2024/01/11 10:45:00;;;;;;;1.65;1.55;;;0.90;99.90;;;;;;5099579;28;20047;-82
2024/01/11 10:47:30;;;;;;;1.42;1.33;;;1.00;99.90;;;;;;5105551;28;20055;-82
2024/01/11 10:49:57;;;;;;;0.95;0.95;;;1.00;49.90;;;;;;5100444;28;20048;-81
2024/01/11 10:52:33;;;;;;;2.20;2.08;;;1.00;1.00;;;;;;5090800;28;20172;-82
2024/01/11 10:55:00;;;;;;;3.78;1.55;;;1.10;99.90;;;;;;5097661;28;20474;-82
2024/01/11 10:57:27;;;;;;;2.15;1.48;;;1.10;99.90;;;;;;5095029;28;20120;-82
2024/01/11 10:59:54;;;;;;;0.43;0.43;;;1.10;99.90;;;;;;5102537;28;20055;-81
2024/01/11 11:02:21;;;;;;;1.40;1.20;;;1.10;99.90;;;;;;5064089;28;20100;-80
2024/01/11 11:04:48;;;;;;;1.77;1.67;;;1.20;99.90;;;;;;5095519;28;20103;-81
2024/01/11 11:07:16;;;;;;;1.17;1.08;;;1.30;99.90;;;;;;5100351;28;20055;-81
2024/01/11 11:09:44;;;;;;;0.73;0.73;;;1.30;1.00;;;;;;5099424;28;20164;-80
2024/01/11 11:12:11;;;;;;;2.58;2.38;;;1.30;1.00;;;;;;5092221;28;20040;-81
2024/01/11 11:14:38;;;;;;;2.17;2.08;;;1.30;99.90;;;;;;5104034;28;20042;-80
2024/01/11 11:17:04;;;;;;;0.70;0.70;;;1.30;1.00;;;;;;5103154;28;20450;-80
2024/01/11 11:19:30;;;;;;;1.13;1.02;;;1.30;99.90;;;;;;5076475;28;20052;-81
2024/01/11 11:21:55;;;;;;;14.93;2.20;;;1.20;99.90;;;;;;5093338;28;20109;-80
2024/01/11 11:24:21;;;;;;;9.18;1.05;;;1.40;1.00;;;;;;5095106;28;20502;-80
2024/01/11 11:26:47;;;;;;;4.38;3.90;;;1.50;99.90;;;;;;5103150;28;20039;-81
2024/01/11 11:29:14;;;;;;;4.03;1.80;;;1.50;99.90;;;;;;5096129;28;20043;-81
2024/01/11 11:31:53;;;;;;;1.02;1.02;;;1.50;99.90;;;;;;5101757;28;20052;-81
2024/01/11 11:34:19;;;;;;;2.65;2.40;;;1.60;41.10;;;;;;5096470;28;20123;-81
2024/01/11 11:36:46;;;;;;;1.25;1.17;;;2.20;1.00;;;;;;5100121;28;20079;-81
2024/01/11 11:39:13;;;;;;;0.47;0.47;;;1.60;99.90;;;;;;5100474;28;20459;-81
2024/01/11 11:41:40;;;;;;;1.20;1.10;;;1.70;99.90;;;;;;5100047;28;20162;-80
2024/01/11 11:44:06;;;;;;;0.73;0.50;;;1.80;1.00;;;;;;5081829;28;20513;-81
2024/01/11 11:46:33;;;;;;;0.38;0.38;;;1.80;99.90;;;;;;5099341;28;20382;-81
2024/01/11 11:48:59;;;;;;;0.95;0.95;;;1.90;99.90;;;;;;5100055;28;20056;-81
2024/01/11 11:51:25;;;;;;;3.13;2.38;;;1.90;99.90;;;;;;5103276;28;20050;-81
2024/01/11 11:53:52;;;;;;;1.75;1.65;;;2.00;99.90;;;;;;5102517;28;20040;-81
2024/01/11 11:56:20;;;;;;;0.20;0.20;;;2.00;99.90;;;;;;5107330;28;20458;-81
2024/01/11 11:58:46;;;;;;;0.50;0.50;;;2.10;98.20;;;;;;5098915;28;20066;-80
2024/01/11 12:01:19;;;;;;;0.85;0.77;;;2.10;65.70;;;;;;5101800;28;20055;-80
2024/01/11 12:03:49;;;;;;;1.13;1.13;;;2.10;50.20;;;;;;5104366;28;20425;-81
2024/01/11 12:06:19;;;;;;;1.10;0.65;;;2.10;67.50;;;;;;5108482;28;20040;-81
2024/01/11 12:08:46;;;;;;;2.22;2.10;;;2.10;33.70;;;;;;5091020;28;20077;-81
2024/01/11 12:11:21;;;;;;;0.75;0.75;;;2.00;1.00;;;;;;5100021;28;20101;-81
2024/01/11 12:13:48;;;;;;;2.67;2.47;;;2.00;69.40;;;;;;5078761;28;20048;-81
2024/01/11 12:16:14;;;;;;;0.73;0.73;;;1.90;73.60;;;;;;5099514;28;20040;-80
2024/01/11 12:18:40;;;;;;;1.90;1.80;;;1.80;76.00;;;;;;5098984;28;20486;-80
2024/01/11 12:21:07;;;;;;;2.05;1.95;;;1.80;99.90;;;;;;5097572;28;20052;-81
2024/01/11 12:23:34;;;;;;;0.20;0.20;;;1.70;99.90;;;;;;5101723;28;20165;-80
2024/01/11 12:26:07;;;;;;;0.90;0.90;;;1.70;99.90;;;;;;5086692;28;20048;-81
2024/01/11 12:28:33;;;;;;;2.92;2.20;;;1.70;99.90;;;;;;5098489;28;20044;-80
2024/01/11 12:30:59;;;;;;;2.22;1.95;;;1.70;99.90;;;;;;5095849;28;20039;-80
2024/01/11 12:33:26;;;;;;;1.90;1.30;;;1.70;99.90;;;;;;5102286;28;20168;-80
2024/01/11 12:35:52;;;;;;;0.57;0.57;;;1.70;99.90;;;;;;5098899;28;20039;-80
2024/01/11 12:38:18;;;;;;;1.05;1.00;;;1.70;99.90;;;;;;5098354;28;20099;-80
2024/01/11 12:40:46;;;;;;;0.85;0.85;;;1.70;99.90;;;;;;5107089;28;20129;-80
2024/01/11 12:43:12;;;;;;;0.52;0.52;;;1.70;99.90;;;;;;5098528;28;20136;-80
2024/01/11 12:45:39;;;;;;;1.55;1.45;;;1.80;99.90;;;;;;5105926;28;20059;-80
2024/01/11 12:48:08;;;;;;;1.33;1.20;;;1.80;99.90;;;;;;5101331;28;20131;-80